sensor_id;sensor_type;location;lat;lon;timestamp;P1;durP1;ratioP1;P2;durP2;ratioP2
7273;SDS011;3678;60.002;17.846;2022-11-11T00:01:59;6.35;;;2.10;;
7273;SDS011;3678;60.002;17.846;2022-11-11T00:04:26;6.00;;;1.43;;
7273;SDS011;3678;60.002;17.846;2022-11-11T00:06:55;3.17;;;1.30;;
7273;SDS011;3678;60.002;17.846;2022-11-11T00:09:22;4.33;;;1.63;;
7273;SDS011;3678;60.002;17.846;2022-11-11T00:11:49;7.10;;;1.53;;
7273;SDS011;3678;60.002;17.846;2022-11-11T00:14:16;4.60;;;1.37;;
7273;SDS011;3678;60.002;17.846;2022-11-11T00:16:43;3.83;;;1.80;;
7273;SDS011;3678;60.002;17.846;2022-11-11T00:19:28;4.13;;;1.13;;
7273;SDS011;3678;60.002;17.846;2022-11-11T00:22:20;6.23;;;1.37;;
7273;SDS011;3678;60.002;17.846;2022-11-11T00:25:05;3.17;;;1.20;;
7273;SDS011;3678;60.002;17.846;2022-11-11T00:27:32;5.43;;;1.90;;
7273;SDS011;3678;60.002;17.846;2022-11-11T00:30:00;3.67;;;1.30;;
7273;SDS011;3678;60.002;17.846;2022-11-11T00:32:27;6.17;;;2.07;;
7273;SDS011;3678;60.002;17.846;2022-11-11T00:34:58;6.47;;;1.10;;
7273;SDS011;3678;60.002;17.846;2022-11-11T00:37:45;5.43;;;1.53;;
7273;SDS011;3678;60.002;17.846;2022-11-11T00:40:13;3.03;;;1.37;;
7273;SDS011;3678;60.002;17.846;2022-11-11T00:42:41;6.23;;;1.30;;
7273;SDS011;3678;60.002;17.846;2022-11-11T00:45:08;3.63;;;1.50;;
7273;SDS011;3678;60.002;17.846;2022-11-11T00:47:36;4.70;;;1.40;;
7273;SDS011;3678;60.002;17.846;2022-11-11T00:50:21;5.00;;;1.30;;
7273;SDS011;3678;60.002;17.846;2022-11-11T00:53:09;4.73;;;1.77;;
7273;SDS011;3678;60.002;17.846;2022-11-11T00:55:37;4.97;;;1.27;;
7273;SDS011;3678;60.002;17.846;2022-11-11T00:58:04;3.90;;;1.20;;
7273;SDS011;3678;60.002;17.846;2022-11-11T01:00:31;3.87;;;1.00;;
7273;SDS011;3678;60.002;17.846;2022-11-11T01:02:59;4.73;;;1.60;;
7273;SDS011;3678;60.002;17.846;2022-11-11T01:05:26;2.13;;;1.23;;
7273;SDS011;3678;60.002;17.846;2022-11-11T01:07:53;3.80;;;1.40;;
7273;SDS011;3678;60.002;17.846;2022-11-11T01:10:22;6.00;;;2.00;;
7273;SDS011;3678;60.002;17.846;2022-11-11T01:13:06;5.00;;;1.27;;
7273;SDS011;3678;60.002;17.846;2022-11-11T01:15:37;2.30;;;1.20;;
7273;SDS011;3678;60.002;17.846;2022-11-11T01:18:04;6.30;;;1.40;;
7273;SDS011;3678;60.002;17.846;2022-11-11T01:20:31;2.93;;;1.37;;
7273;SDS011;3678;60.002;17.846;2022-11-11T01:22:59;5.77;;;1.20;;
7273;SDS011;3678;60.002;17.846;2022-11-11T01:25:27;5.70;;;1.67;;
7273;SDS011;3678;60.002;17.846;2022-11-11T01:27:55;7.13;;;1.10;;
7273;SDS011;3678;60.002;17.846;2022-11-11T01:30:22;4.53;;;1.77;;
7273;SDS011;3678;60.002;17.846;2022-11-11T01:32:49;3.07;;;1.13;;
7273;SDS011;3678;60.002;17.846;2022-11-11T01:35:16;3.30;;;1.00;;
7273;SDS011;3678;60.002;17.846;2022-11-11T01:37:43;2.63;;;1.03;;
7273;SDS011;3678;60.002;17.846;2022-11-11T01:40:11;3.17;;;1.10;;
7273;SDS011;3678;60.002;17.846;2022-11-11T01:42:46;3.33;;;1.00;;
7273;SDS011;3678;60.002;17.846;2022-11-11T01:47:59;2.60;;;1.20;;
7273;SDS011;3678;60.002;17.846;2022-11-11T01:50:44;5.53;;;1.27;;
7273;SDS011;3678;60.002;17.846;2022-11-11T01:53:11;4.43;;;1.17;;
7273;SDS011;3678;60.002;17.846;2022-11-11T01:55:38;5.37;;;1.30;;
7273;SDS011;3678;60.002;17.846;2022-11-11T01:58:08;3.00;;;1.00;;
7273;SDS011;3678;60.002;17.846;2022-11-11T02:00:36;3.35;;;1.15;;
7273;SDS011;3678;60.002;17.846;2022-11-11T02:03:04;1.63;;;0.93;;
7273;SDS011;3678;60.002;17.846;2022-11-11T02:05:32;3.70;;;1.27;;
7273;SDS011;3678;60.002;17.846;2022-11-11T02:08:09;3.67;;;1.17;;
7273;SDS011;3678;60.002;17.846;2022-11-11T02:10:38;1.67;;;1.00;;
7273;SDS011;3678;60.002;17.846;2022-11-11T02:13:11;1.87;;;1.07;;
7273;SDS011;3678;60.002;17.846;2022-11-11T02:15:56;2.83;;;1.10;;
7273;SDS011;3678;60.002;17.846;2022-11-11T02:18:23;2.87;;;1.00;;
7273;SDS011;3678;60.002;17.846;2022-11-11T02:20:51;2.40;;;0.87;;
7273;SDS011;3678;60.002;17.846;2022-11-11T02:23:21;2.73;;;0.80;;
7273;SDS011;3678;60.002;17.846;2022-11-11T02:25:51;3.23;;;1.17;;
7273;SDS011;3678;60.002;17.846;2022-11-11T02:28:19;2.93;;;1.10;;
7273;SDS011;3678;60.002;17.846;2022-11-11T02:30:47;1.87;;;1.00;;
7273;SDS011;3678;60.002;17.846;2022-11-11T02:33:14;2.93;;;1.33;;
7273;SDS011;3678;60.002;17.846;2022-11-11T02:35:42;1.33;;;0.83;;
7273;SDS011;3678;60.002;17.846;2022-11-11T02:38:10;2.73;;;1.23;;
7273;SDS011;3678;60.002;17.846;2022-11-11T02:40:39;4.20;;;1.10;;
7273;SDS011;3678;60.002;17.846;2022-11-11T02:43:29;1.57;;;0.90;;
7273;SDS011;3678;60.002;17.846;2022-11-11T02:45:56;2.83;;;1.03;;
7273;SDS011;3678;60.002;17.846;2022-11-11T02:48:24;2.13;;;1.40;;
7273;SDS011;3678;60.002;17.846;2022-11-11T02:50:51;3.50;;;0.90;;
7273;SDS011;3678;60.002;17.846;2022-11-11T02:53:19;2.77;;;0.90;;
7273;SDS011;3678;60.002;17.846;2022-11-11T02:55:46;3.33;;;1.07;;
7273;SDS011;3678;60.002;17.846;2022-11-11T02:58:14;5.00;;;1.73;;
7273;SDS011;3678;60.002;17.846;2022-11-11T03:00:42;3.33;;;1.17;;
7273;SDS011;3678;60.002;17.846;2022-11-11T03:03:10;4.63;;;1.60;;
7273;SDS011;3678;60.002;17.846;2022-11-11T03:05:37;5.60;;;1.20;;
7273;SDS011;3678;60.002;17.846;2022-11-11T03:08:04;3.40;;;1.30;;
7273;SDS011;3678;60.002;17.846;2022-11-11T03:10:32;4.33;;;1.10;;
7273;SDS011;3678;60.002;17.846;2022-11-11T03:12:59;4.43;;;1.60;;
7273;SDS011;3678;60.002;17.846;2022-11-11T03:15:26;5.67;;;1.20;;
7273;SDS011;3678;60.002;17.846;2022-11-11T03:17:54;6.43;;;1.40;;
7273;SDS011;3678;60.002;17.846;2022-11-11T03:20:21;3.13;;;1.07;;
7273;SDS011;3678;60.002;17.846;2022-11-11T03:23:06;5.97;;;1.30;;
7273;SDS011;3678;60.002;17.846;2022-11-11T03:25:36;2.63;;;1.10;;
7273;SDS011;3678;60.002;17.846;2022-11-11T03:28:02;3.27;;;1.03;;
7273;SDS011;3678;60.002;17.846;2022-11-11T03:30:29;5.57;;;1.70;;
7273;SDS011;3678;60.002;17.846;2022-11-11T03:32:58;3.33;;;1.07;;
7273;SDS011;3678;60.002;17.846;2022-11-11T03:35:25;5.33;;;1.40;;
7273;SDS011;3678;60.002;17.846;2022-11-11T03:37:53;5.30;;;1.67;;
7273;SDS011;3678;60.002;17.846;2022-11-11T03:40:38;1.83;;;0.87;;
7273;SDS011;3678;60.002;17.846;2022-11-11T03:43:05;2.40;;;1.00;;
7273;SDS011;3678;60.002;17.846;2022-11-11T03:45:32;2.93;;;1.10;;
7273;SDS011;3678;60.002;17.846;2022-11-11T03:48:01;3.43;;;1.20;;
7273;SDS011;3678;60.002;17.846;2022-11-11T03:50:28;2.87;;;1.10;;
7273;SDS011;3678;60.002;17.846;2022-11-11T03:52:55;1.97;;;0.90;;
7273;SDS011;3678;60.002;17.846;2022-11-11T03:55:22;3.50;;;0.90;;
7273;SDS011;3678;60.002;17.846;2022-11-11T03:57:49;3.47;;;0.97;;
7273;SDS011;3678;60.002;17.846;2022-11-11T04:00:17;3.90;;;1.23;;
7273;SDS011;3678;60.002;17.846;2022-11-11T04:02:45;3.33;;;1.07;;
7273;SDS011;3678;60.002;17.846;2022-11-11T04:05:31;2.57;;;0.93;;
7273;SDS011;3678;60.002;17.846;2022-11-11T04:08:17;3.03;;;1.10;;
7273;SDS011;3678;60.002;17.846;2022-11-11T04:11:04;3.83;;;1.17;;
7273;SDS011;3678;60.002;17.846;2022-11-11T04:13:32;2.47;;;1.07;;
7273;SDS011;3678;60.002;17.846;2022-11-11T04:16:17;2.73;;;1.10;;
7273;SDS011;3678;60.002;17.846;2022-11-11T04:18:44;4.57;;;1.60;;
7273;SDS011;3678;60.002;17.846;2022-11-11T04:21:31;5.73;;;1.73;;
7273;SDS011;3678;60.002;17.846;2022-11-11T04:24:11;4.90;;;1.10;;
7273;SDS011;3678;60.002;17.846;2022-11-11T04:26:57;4.03;;;1.37;;
7273;SDS011;3678;60.002;17.846;2022-11-11T04:29:25;6.90;;;1.40;;
7273;SDS011;3678;60.002;17.846;2022-11-11T04:31:57;4.85;;;1.40;;
7273;SDS011;3678;60.002;17.846;2022-11-11T04:34:43;4.63;;;1.60;;
7273;SDS011;3678;60.002;17.846;2022-11-11T04:37:12;3.50;;;1.20;;
7273;SDS011;3678;60.002;17.846;2022-11-11T04:39:39;2.93;;;1.20;;
7273;SDS011;3678;60.002;17.846;2022-11-11T04:42:24;5.53;;;1.63;;
7273;SDS011;3678;60.002;17.846;2022-11-11T04:44:51;5.70;;;1.43;;
7273;SDS011;3678;60.002;17.846;2022-11-11T04:47:36;6.13;;;1.33;;
7273;SDS011;3678;60.002;17.846;2022-11-11T04:50:04;3.90;;;1.30;;
7273;SDS011;3678;60.002;17.846;2022-11-11T04:52:33;4.40;;;1.63;;
7273;SDS011;3678;60.002;17.846;2022-11-11T04:55:00;6.27;;;1.50;;
7273;SDS011;3678;60.002;17.846;2022-11-11T04:57:45;6.47;;;1.70;;
7273;SDS011;3678;60.002;17.846;2022-11-11T05:00:13;7.03;;;1.52;;
7273;SDS011;3678;60.002;17.846;2022-11-11T05:02:40;5.27;;;1.70;;
7273;SDS011;3678;60.002;17.846;2022-11-11T05:05:25;6.70;;;1.43;;
7273;SDS011;3678;60.002;17.846;2022-11-11T05:07:54;5.00;;;1.60;;
7273;SDS011;3678;60.002;17.846;2022-11-11T05:10:39;10.90;;;2.40;;
7273;SDS011;3678;60.002;17.846;2022-11-11T05:13:06;7.43;;;1.77;;
7273;SDS011;3678;60.002;17.846;2022-11-11T05:15:51;11.07;;;2.40;;
7273;SDS011;3678;60.002;17.846;2022-11-11T05:18:36;7.43;;;2.10;;
7273;SDS011;3678;60.002;17.846;2022-11-11T05:21:21;6.97;;;1.53;;
7273;SDS011;3678;60.002;17.846;2022-11-11T05:23:50;9.70;;;1.97;;
7273;SDS011;3678;60.002;17.846;2022-11-11T05:26:35;5.10;;;1.77;;
7273;SDS011;3678;60.002;17.846;2022-11-11T05:29:03;4.20;;;1.50;;
7273;SDS011;3678;60.002;17.846;2022-11-11T05:31:31;6.13;;;1.95;;
7273;SDS011;3678;60.002;17.846;2022-11-11T05:33:58;7.33;;;2.13;;
7273;SDS011;3678;60.002;17.846;2022-11-11T05:36:28;4.93;;;1.43;;
7273;SDS011;3678;60.002;17.846;2022-11-11T05:38:56;7.00;;;1.70;;
7273;SDS011;3678;60.002;17.846;2022-11-11T05:41:23;7.57;;;1.60;;
7273;SDS011;3678;60.002;17.846;2022-11-11T05:43:51;12.40;;;2.73;;
7273;SDS011;3678;60.002;17.846;2022-11-11T05:46:18;7.93;;;2.22;;
7273;SDS011;3678;60.002;17.846;2022-11-11T05:48:45;5.47;;;1.40;;
7273;SDS011;3678;60.002;17.846;2022-11-11T05:51:35;7.80;;;1.97;;
7273;SDS011;3678;60.002;17.846;2022-11-11T05:54:04;7.43;;;1.80;;
7273;SDS011;3678;60.002;17.846;2022-11-11T05:56:31;8.07;;;2.35;;
7273;SDS011;3678;60.002;17.846;2022-11-11T05:58:58;9.73;;;1.93;;
7273;SDS011;3678;60.002;17.846;2022-11-11T06:01:25;14.23;;;3.13;;
7273;SDS011;3678;60.002;17.846;2022-11-11T06:03:52;7.17;;;2.63;;
7273;SDS011;3678;60.002;17.846;2022-11-11T06:06:29;13.33;;;3.07;;
7273;SDS011;3678;60.002;17.846;2022-11-11T06:08:56;9.93;;;2.40;;
7273;SDS011;3678;60.002;17.846;2022-11-11T06:14:23;12.07;;;3.43;;
7273;SDS011;3678;60.002;17.846;2022-11-11T06:16:51;9.03;;;2.63;;
7273;SDS011;3678;60.002;17.846;2022-11-11T06:19:18;14.20;;;2.80;;
7273;SDS011;3678;60.002;17.846;2022-11-11T06:21:45;6.97;;;1.97;;
7273;SDS011;3678;60.002;17.846;2022-11-11T06:24:25;4.47;;;2.20;;
7273;SDS011;3678;60.002;17.846;2022-11-11T06:26:54;6.73;;;2.20;;
7273;SDS011;3678;60.002;17.846;2022-11-11T06:29:21;10.13;;;2.60;;
7273;SDS011;3678;60.002;17.846;2022-11-11T06:31:49;9.45;;;2.50;;
7273;SDS011;3678;60.002;17.846;2022-11-11T06:34:16;8.80;;;2.23;;
7273;SDS011;3678;60.002;17.846;2022-11-11T06:36:44;6.30;;;2.23;;
7273;SDS011;3678;60.002;17.846;2022-11-11T06:39:11;11.90;;;2.70;;
7273;SDS011;3678;60.002;17.846;2022-11-11T06:41:38;10.43;;;2.63;;
7273;SDS011;3678;60.002;17.846;2022-11-11T06:44:07;9.93;;;2.27;;
7273;SDS011;3678;60.002;17.846;2022-11-11T06:46:34;7.53;;;2.77;;
7273;SDS011;3678;60.002;17.846;2022-11-11T06:49:01;10.33;;;2.53;;
7273;SDS011;3678;60.002;17.846;2022-11-11T06:51:28;6.53;;;2.23;;
7273;SDS011;3678;60.002;17.846;2022-11-11T06:53:55;10.10;;;2.63;;
7273;SDS011;3678;60.002;17.846;2022-11-11T06:56:22;9.80;;;2.53;;
7273;SDS011;3678;60.002;17.846;2022-11-11T06:58:50;8.83;;;2.30;;
7273;SDS011;3678;60.002;17.846;2022-11-11T07:01:18;8.30;;;2.37;;
7273;SDS011;3678;60.002;17.846;2022-11-11T07:03:45;8.17;;;2.67;;
7273;SDS011;3678;60.002;17.846;2022-11-11T07:06:12;8.70;;;2.10;;
7273;SDS011;3678;60.002;17.846;2022-11-11T07:08:40;12.03;;;2.67;;
7273;SDS011;3678;60.002;17.846;2022-11-11T07:11:08;11.90;;;3.37;;
7273;SDS011;3678;60.002;17.846;2022-11-11T07:13:36;9.23;;;3.10;;
7273;SDS011;3678;60.002;17.846;2022-11-11T07:16:03;10.53;;;2.90;;
7273;SDS011;3678;60.002;17.846;2022-11-11T07:18:32;12.43;;;2.90;;
7273;SDS011;3678;60.002;17.846;2022-11-11T07:20:59;8.43;;;2.37;;
7273;SDS011;3678;60.002;17.846;2022-11-11T07:23:26;8.60;;;2.30;;
7273;SDS011;3678;60.002;17.846;2022-11-11T07:25:53;7.77;;;2.43;;
7273;SDS011;3678;60.002;17.846;2022-11-11T07:28:20;12.23;;;3.27;;
7273;SDS011;3678;60.002;17.846;2022-11-11T07:30:49;11.05;;;3.33;;
7273;SDS011;3678;60.002;17.846;2022-11-11T07:33:16;10.53;;;2.60;;
7273;SDS011;3678;60.002;17.846;2022-11-11T07:35:44;9.20;;;2.97;;
7273;SDS011;3678;60.002;17.846;2022-11-11T07:38:12;5.20;;;1.90;;
7273;SDS011;3678;60.002;17.846;2022-11-11T07:40:39;10.80;;;2.27;;
7273;SDS011;3678;60.002;17.846;2022-11-11T07:43:06;7.43;;;2.00;;
7273;SDS011;3678;60.002;17.846;2022-11-11T07:45:33;10.40;;;3.30;;
7273;SDS011;3678;60.002;17.846;2022-11-11T07:48:00;6.87;;;2.60;;
7273;SDS011;3678;60.002;17.846;2022-11-11T07:50:27;8.60;;;3.00;;
7273;SDS011;3678;60.002;17.846;2022-11-11T07:52:56;7.20;;;2.20;;
7273;SDS011;3678;60.002;17.846;2022-11-11T07:55:23;9.53;;;2.40;;
7273;SDS011;3678;60.002;17.846;2022-11-11T07:57:50;8.70;;;2.10;;
7273;SDS011;3678;60.002;17.846;2022-11-11T08:00:18;8.32;;;2.63;;
7273;SDS011;3678;60.002;17.846;2022-11-11T08:02:46;7.63;;;2.13;;
7273;SDS011;3678;60.002;17.846;2022-11-11T08:05:13;8.40;;;1.90;;
7273;SDS011;3678;60.002;17.846;2022-11-11T08:07:40;8.27;;;3.20;;
7273;SDS011;3678;60.002;17.846;2022-11-11T08:10:09;10.70;;;2.17;;
7273;SDS011;3678;60.002;17.846;2022-11-11T08:12:36;9.73;;;2.43;;
7273;SDS011;3678;60.002;17.846;2022-11-11T08:15:22;6.30;;;1.97;;
7273;SDS011;3678;60.002;17.846;2022-11-11T08:17:49;7.93;;;2.63;;
7273;SDS011;3678;60.002;17.846;2022-11-11T08:20:16;10.37;;;2.60;;
7273;SDS011;3678;60.002;17.846;2022-11-11T08:22:43;10.53;;;2.80;;
7273;SDS011;3678;60.002;17.846;2022-11-11T08:25:12;9.90;;;2.97;;
7273;SDS011;3678;60.002;17.846;2022-11-11T08:27:39;5.67;;;2.47;;
7273;SDS011;3678;60.002;17.846;2022-11-11T08:30:07;8.63;;;2.47;;
7273;SDS011;3678;60.002;17.846;2022-11-11T08:32:35;12.43;;;3.20;;
7273;SDS011;3678;60.002;17.846;2022-11-11T08:35:02;9.83;;;3.13;;
7273;SDS011;3678;60.002;17.846;2022-11-11T08:37:29;9.27;;;2.70;;
7273;SDS011;3678;60.002;17.846;2022-11-11T08:39:57;12.17;;;2.97;;
7273;SDS011;3678;60.002;17.846;2022-11-11T08:42:25;9.70;;;3.03;;
7273;SDS011;3678;60.002;17.846;2022-11-11T08:44:52;10.30;;;2.80;;
7273;SDS011;3678;60.002;17.846;2022-11-11T08:47:20;12.77;;;2.80;;
7273;SDS011;3678;60.002;17.846;2022-11-11T08:49:48;12.60;;;3.10;;
7273;SDS011;3678;60.002;17.846;2022-11-11T08:52:16;6.53;;;2.83;;
7273;SDS011;3678;60.002;17.846;2022-11-11T08:54:43;10.83;;;3.13;;
7273;SDS011;3678;60.002;17.846;2022-11-11T08:57:10;10.03;;;3.23;;
7273;SDS011;3678;60.002;17.846;2022-11-11T08:59:39;9.73;;;3.03;;
7273;SDS011;3678;60.002;17.846;2022-11-11T09:02:08;11.03;;;2.77;;
7273;SDS011;3678;60.002;17.846;2022-11-11T09:04:35;11.10;;;3.07;;
7273;SDS011;3678;60.002;17.846;2022-11-11T09:07:02;11.48;;;3.78;;
7273;SDS011;3678;60.002;17.846;2022-11-11T09:09:30;11.13;;;4.30;;
7273;SDS011;3678;60.002;17.846;2022-11-11T09:11:57;10.87;;;2.47;;
7273;SDS011;3678;60.002;17.846;2022-11-11T09:14:24;10.23;;;3.13;;
7273;SDS011;3678;60.002;17.846;2022-11-11T09:16:52;11.07;;;3.20;;
7273;SDS011;3678;60.002;17.846;2022-11-11T09:19:20;11.80;;;3.00;;
7273;SDS011;3678;60.002;17.846;2022-11-11T09:21:47;13.03;;;3.10;;
7273;SDS011;3678;60.002;17.846;2022-11-11T09:24:14;14.63;;;4.83;;
7273;SDS011;3678;60.002;17.846;2022-11-11T09:26:41;12.33;;;3.30;;
7273;SDS011;3678;60.002;17.846;2022-11-11T09:29:08;10.60;;;2.90;;
7273;SDS011;3678;60.002;17.846;2022-11-11T09:31:35;13.80;;;3.03;;
7273;SDS011;3678;60.002;17.846;2022-11-11T09:34:04;10.20;;;3.00;;
7273;SDS011;3678;60.002;17.846;2022-11-11T09:36:31;10.43;;;2.90;;
7273;SDS011;3678;60.002;17.846;2022-11-11T09:38:59;9.87;;;3.07;;
7273;SDS011;3678;60.002;17.846;2022-11-11T09:41:31;8.23;;;2.87;;
7273;SDS011;3678;60.002;17.846;2022-11-11T09:43:59;8.43;;;2.37;;
7273;SDS011;3678;60.002;17.846;2022-11-11T09:46:37;11.45;;;3.60;;
7273;SDS011;3678;60.002;17.846;2022-11-11T09:49:15;8.80;;;2.80;;
7273;SDS011;3678;60.002;17.846;2022-11-11T09:51:46;9.77;;;2.60;;
7273;SDS011;3678;60.002;17.846;2022-11-11T09:54:15;10.27;;;2.80;;
7273;SDS011;3678;60.002;17.846;2022-11-11T09:56:43;7.10;;;2.30;;
7273;SDS011;3678;60.002;17.846;2022-11-11T09:59:11;9.73;;;2.93;;
7273;SDS011;3678;60.002;17.846;2022-11-11T10:01:41;10.70;;;3.17;;
7273;SDS011;3678;60.002;17.846;2022-11-11T10:06:53;10.97;;;2.53;;
7273;SDS011;3678;60.002;17.846;2022-11-11T10:09:23;7.93;;;3.20;;
7273;SDS011;3678;60.002;17.846;2022-11-11T10:11:52;8.40;;;2.20;;
7273;SDS011;3678;60.002;17.846;2022-11-11T10:14:20;10.70;;;3.03;;
7273;SDS011;3678;60.002;17.846;2022-11-11T10:16:51;7.77;;;2.57;;
7273;SDS011;3678;60.002;17.846;2022-11-11T10:19:24;10.20;;;2.70;;
7273;SDS011;3678;60.002;17.846;2022-11-11T10:21:56;7.77;;;2.73;;
7273;SDS011;3678;60.002;17.846;2022-11-11T10:24:25;9.93;;;3.30;;
7273;SDS011;3678;60.002;17.846;2022-11-11T10:26:54;11.83;;;2.70;;
7273;SDS011;3678;60.002;17.846;2022-11-11T10:29:21;8.60;;;2.47;;
7273;SDS011;3678;60.002;17.846;2022-11-11T10:31:51;10.93;;;3.37;;
7273;SDS011;3678;60.002;17.846;2022-11-11T10:34:21;12.90;;;3.70;;
7273;SDS011;3678;60.002;17.846;2022-11-11T10:36:49;11.83;;;3.20;;
7273;SDS011;3678;60.002;17.846;2022-11-11T10:39:19;10.30;;;2.90;;
7273;SDS011;3678;60.002;17.846;2022-11-11T10:41:48;8.60;;;2.73;;
7273;SDS011;3678;60.002;17.846;2022-11-11T10:44:17;9.77;;;3.00;;
7273;SDS011;3678;60.002;17.846;2022-11-11T10:46:48;11.53;;;3.47;;
7273;SDS011;3678;60.002;17.846;2022-11-11T10:49:19;8.17;;;2.60;;
7273;SDS011;3678;60.002;17.846;2022-11-11T10:51:48;7.80;;;2.93;;
7273;SDS011;3678;60.002;17.846;2022-11-11T10:54:18;12.23;;;2.70;;
7273;SDS011;3678;60.002;17.846;2022-11-11T10:56:49;9.13;;;2.53;;
7273;SDS011;3678;60.002;17.846;2022-11-11T10:59:18;12.70;;;2.83;;
7273;SDS011;3678;60.002;17.846;2022-11-11T11:01:48;8.32;;;2.67;;
7273;SDS011;3678;60.002;17.846;2022-11-11T11:04:20;13.23;;;3.10;;
7273;SDS011;3678;60.002;17.846;2022-11-11T11:06:48;10.23;;;2.83;;
7273;SDS011;3678;60.002;17.846;2022-11-11T11:09:18;13.20;;;2.47;;
7273;SDS011;3678;60.002;17.846;2022-11-11T11:11:48;10.67;;;3.17;;
7273;SDS011;3678;60.002;17.846;2022-11-11T11:14:18;9.07;;;2.50;;
7273;SDS011;3678;60.002;17.846;2022-11-11T11:16:47;8.20;;;2.53;;
7273;SDS011;3678;60.002;17.846;2022-11-11T11:19:17;11.97;;;3.40;;
7273;SDS011;3678;60.002;17.846;2022-11-11T11:21:48;13.37;;;3.60;;
7273;SDS011;3678;60.002;17.846;2022-11-11T11:24:19;9.57;;;2.57;;
7273;SDS011;3678;60.002;17.846;2022-11-11T11:26:47;7.87;;;2.70;;
7273;SDS011;3678;60.002;17.846;2022-11-11T11:29:22;10.37;;;3.27;;
7273;SDS011;3678;60.002;17.846;2022-11-11T11:31:50;10.38;;;2.92;;
7273;SDS011;3678;60.002;17.846;2022-11-11T11:34:18;12.93;;;3.33;;
7273;SDS011;3678;60.002;17.846;2022-11-11T11:36:50;11.40;;;3.50;;
7273;SDS011;3678;60.002;17.846;2022-11-11T11:39:32;9.30;;;2.90;;
7273;SDS011;3678;60.002;17.846;2022-11-11T11:41:59;7.83;;;2.27;;
7273;SDS011;3678;60.002;17.846;2022-11-11T11:44:27;6.93;;;2.60;;
7273;SDS011;3678;60.002;17.846;2022-11-11T11:46:57;12.10;;;2.60;;
7273;SDS011;3678;60.002;17.846;2022-11-11T11:49:30;12.53;;;3.53;;
7273;SDS011;3678;60.002;17.846;2022-11-11T11:52:02;10.27;;;3.63;;
7273;SDS011;3678;60.002;17.846;2022-11-11T11:54:44;6.73;;;2.27;;
7273;SDS011;3678;60.002;17.846;2022-11-11T11:57:19;8.57;;;2.77;;
7273;SDS011;3678;60.002;17.846;2022-11-11T11:59:50;11.63;;;2.87;;
7273;SDS011;3678;60.002;17.846;2022-11-11T12:02:26;8.77;;;2.87;;
7273;SDS011;3678;60.002;17.846;2022-11-11T12:05:00;9.33;;;2.83;;
7273;SDS011;3678;60.002;17.846;2022-11-11T12:07:36;9.13;;;3.07;;
7273;SDS011;3678;60.002;17.846;2022-11-11T12:10:13;7.63;;;2.77;;
7273;SDS011;3678;60.002;17.846;2022-11-11T12:12:47;11.30;;;3.65;;
7273;SDS011;3678;60.002;17.846;2022-11-11T12:15:23;9.80;;;3.07;;
7273;SDS011;3678;60.002;17.846;2022-11-11T12:17:55;12.97;;;3.10;;
7273;SDS011;3678;60.002;17.846;2022-11-11T12:20:26;9.03;;;2.97;;
7273;SDS011;3678;60.002;17.846;2022-11-11T12:23:07;8.87;;;2.40;;
7273;SDS011;3678;60.002;17.846;2022-11-11T12:25:45;8.10;;;2.33;;
7273;SDS011;3678;60.002;17.846;2022-11-11T12:28:20;10.73;;;3.20;;
7273;SDS011;3678;60.002;17.846;2022-11-11T12:30:54;9.23;;;3.17;;
7273;SDS011;3678;60.002;17.846;2022-11-11T12:33:32;8.40;;;2.80;;
7273;SDS011;3678;60.002;17.846;2022-11-11T12:36:05;10.70;;;3.20;;
7273;SDS011;3678;60.002;17.846;2022-11-11T12:41:21;10.23;;;3.37;;
7273;SDS011;3678;60.002;17.846;2022-11-11T12:43:52;16.40;;;3.07;;
7273;SDS011;3678;60.002;17.846;2022-11-11T12:46:25;11.60;;;3.65;;
7273;SDS011;3678;60.002;17.846;2022-11-11T12:48:58;11.53;;;2.43;;
7273;SDS011;3678;60.002;17.846;2022-11-11T12:51:32;9.97;;;2.93;;
7273;SDS011;3678;60.002;17.846;2022-11-11T12:54:04;8.67;;;2.80;;
7273;SDS011;3678;60.002;17.846;2022-11-11T12:56:38;13.17;;;2.87;;
7273;SDS011;3678;60.002;17.846;2022-11-11T12:59:11;5.07;;;2.23;;
7273;SDS011;3678;60.002;17.846;2022-11-11T13:01:47;8.90;;;3.10;;
7273;SDS011;3678;60.002;17.846;2022-11-11T13:04:31;8.30;;;2.80;;
7273;SDS011;3678;60.002;17.846;2022-11-11T13:07:04;9.13;;;2.80;;
7273;SDS011;3678;60.002;17.846;2022-11-11T13:09:41;10.87;;;2.67;;
7273;SDS011;3678;60.002;17.846;2022-11-11T13:12:15;12.07;;;3.03;;
7273;SDS011;3678;60.002;17.846;2022-11-11T13:14:50;6.17;;;2.50;;
7273;SDS011;3678;60.002;17.846;2022-11-11T13:17:17;7.40;;;2.00;;
7273;SDS011;3678;60.002;17.846;2022-11-11T13:19:47;9.37;;;2.60;;
7273;SDS011;3678;60.002;17.846;2022-11-11T13:22:18;6.57;;;2.50;;
7273;SDS011;3678;60.002;17.846;2022-11-11T13:24:47;7.57;;;2.43;;
7273;SDS011;3678;60.002;17.846;2022-11-11T13:27:18;5.33;;;2.20;;
7273;SDS011;3678;60.002;17.846;2022-11-11T13:30:03;7.30;;;2.70;;
7273;SDS011;3678;60.002;17.846;2022-11-11T13:32:33;7.10;;;2.00;;
7273;SDS011;3678;60.002;17.846;2022-11-11T13:35:03;6.00;;;2.03;;
7273;SDS011;3678;60.002;17.846;2022-11-11T13:37:34;6.97;;;2.10;;
7273;SDS011;3678;60.002;17.846;2022-11-11T13:40:03;7.63;;;2.17;;
7273;SDS011;3678;60.002;17.846;2022-11-11T13:42:34;6.47;;;2.50;;
7273;SDS011;3678;60.002;17.846;2022-11-11T13:45:02;8.43;;;2.53;;
7273;SDS011;3678;60.002;17.846;2022-11-11T13:47:32;6.30;;;2.63;;
7273;SDS011;3678;60.002;17.846;2022-11-11T13:50:02;9.17;;;2.10;;
7273;SDS011;3678;60.002;17.846;2022-11-11T13:52:30;8.40;;;2.50;;
7273;SDS011;3678;60.002;17.846;2022-11-11T13:54:59;7.47;;;2.27;;
7273;SDS011;3678;60.002;17.846;2022-11-11T13:57:27;5.30;;;1.77;;
7273;SDS011;3678;60.002;17.846;2022-11-11T13:59:59;7.50;;;2.28;;
7273;SDS011;3678;60.002;17.846;2022-11-11T14:02:28;7.40;;;2.23;;
7273;SDS011;3678;60.002;17.846;2022-11-11T14:05:15;7.53;;;2.43;;
7273;SDS011;3678;60.002;17.846;2022-11-11T14:07:46;5.40;;;2.00;;
7273;SDS011;3678;60.002;17.846;2022-11-11T14:12:56;7.43;;;1.77;;
7273;SDS011;3678;60.002;17.846;2022-11-11T14:15:33;6.15;;;2.33;;
7273;SDS011;3678;60.002;17.846;2022-11-11T14:18:01;6.43;;;2.33;;
7273;SDS011;3678;60.002;17.846;2022-11-11T14:20:33;6.80;;;2.30;;
7273;SDS011;3678;60.002;17.846;2022-11-11T14:23:21;7.17;;;2.27;;
7273;SDS011;3678;60.002;17.846;2022-11-11T14:25:50;4.60;;;1.80;;
7273;SDS011;3678;60.002;17.846;2022-11-11T14:28:21;5.53;;;2.03;;
7273;SDS011;3678;60.002;17.846;2022-11-11T14:30:50;8.63;;;2.30;;
7273;SDS011;3678;60.002;17.846;2022-11-11T14:33:22;7.00;;;2.20;;
7273;SDS011;3678;60.002;17.846;2022-11-11T14:35:56;4.77;;;1.90;;
7273;SDS011;3678;60.002;17.846;2022-11-11T14:38:31;6.73;;;2.00;;
7273;SDS011;3678;60.002;17.846;2022-11-11T14:43:44;5.43;;;2.37;;
7273;SDS011;3678;60.002;17.846;2022-11-11T14:46:12;8.32;;;2.45;;
7273;SDS011;3678;60.002;17.846;2022-11-11T14:48:52;5.57;;;2.00;;
7273;SDS011;3678;60.002;17.846;2022-11-11T14:54:13;6.47;;;2.87;;
7273;SDS011;3678;60.002;17.846;2022-11-11T14:56:42;8.77;;;2.40;;
7273;SDS011;3678;60.002;17.846;2022-11-11T14:59:10;5.87;;;2.10;;
7273;SDS011;3678;60.002;17.846;2022-11-11T15:01:40;9.68;;;2.80;;
7273;SDS011;3678;60.002;17.846;2022-11-11T15:04:07;8.77;;;2.57;;
7273;SDS011;3678;60.002;17.846;2022-11-11T15:06:36;10.13;;;2.90;;
7273;SDS011;3678;60.002;17.846;2022-11-11T15:09:07;7.90;;;2.60;;
7273;SDS011;3678;60.002;17.846;2022-11-11T15:11:40;9.40;;;3.20;;
7273;SDS011;3678;60.002;17.846;2022-11-11T15:14:13;13.17;;;2.47;;
7273;SDS011;3678;60.002;17.846;2022-11-11T15:17:00;8.80;;;3.10;;
7273;SDS011;3678;60.002;17.846;2022-11-11T15:19:33;10.77;;;2.93;;
7273;SDS011;3678;60.002;17.846;2022-11-11T15:22:06;5.23;;;2.33;;
7273;SDS011;3678;60.002;17.846;2022-11-11T15:24:37;7.63;;;2.50;;
7273;SDS011;3678;60.002;17.846;2022-11-11T15:27:07;11.73;;;3.87;;
7273;SDS011;3678;60.002;17.846;2022-11-11T15:29:45;8.87;;;2.67;;
7273;SDS011;3678;60.002;17.846;2022-11-11T15:32:19;7.00;;;2.50;;
7273;SDS011;3678;60.002;17.846;2022-11-11T15:34:50;8.37;;;2.90;;
7273;SDS011;3678;60.002;17.846;2022-11-11T15:37:19;10.03;;;2.20;;
7273;SDS011;3678;60.002;17.846;2022-11-11T15:39:48;15.37;;;3.47;;